Terminal Aerodrome Forecast
Issued by NWS

Home | Current Version | Previous Version | Text Only | Print | Product List | Glossary On
Versions: 1 2 3 4 5 6 7 8 9 10 11 12 13 14 15 16 17 18 19 20
000
FTUS45 KFGZ 221900 AAA
TAFSEZ
TAF AMD
KSEZ 221917Z 2219/2318 17009KT P6SM SCT040 BKN090
      TEMPO 2219/2223 -SHRA BKN040
     FM230400 05008KT P6SM FEW030=

USA.gov is the U.S. government's official web portal to all federal, state and local government web resources and services.